sensor_id;sensor_type;location;lat;lon;timestamp;temperature;humidity
44863;DHT22;30597;49.628;10.850;2022-07-12T00:01:20;24.00;50.30
44863;DHT22;30597;49.628;10.850;2022-07-12T00:03:46;24.00;50.30
44863;DHT22;30597;49.628;10.850;2022-07-12T00:06:12;24.00;50.30
44863;DHT22;30597;49.628;10.850;2022-07-12T00:08:37;24.00;50.30
44863;DHT22;30597;49.628;10.850;2022-07-12T00:11:04;24.10;50.30
44863;DHT22;30597;49.628;10.850;2022-07-12T00:13:30;24.00;50.30
44863;DHT22;30597;49.628;10.850;2022-07-12T00:15:56;24.00;50.40
44863;DHT22;30597;49.628;10.850;2022-07-12T00:18:22;24.00;50.40
44863;DHT22;30597;49.628;10.850;2022-07-12T00:20:48;24.00;50.30
44863;DHT22;30597;49.628;10.850;2022-07-12T00:23:14;24.00;51.00
44863;DHT22;30597;49.628;10.850;2022-07-12T00:25:40;24.00;50.40
44863;DHT22;30597;49.628;10.850;2022-07-12T00:28:06;23.90;50.30
44863;DHT22;30597;49.628;10.850;2022-07-12T00:30:32;24.00;50.40
44863;DHT22;30597;49.628;10.850;2022-07-12T00:32:57;24.00;50.40
44863;DHT22;30597;49.628;10.850;2022-07-12T00:35:23;23.90;50.40
44863;DHT22;30597;49.628;10.850;2022-07-12T00:37:48;23.90;50.40
44863;DHT22;30597;49.628;10.850;2022-07-12T00:40:14;24.00;50.70
44863;DHT22;30597;49.628;10.850;2022-07-12T00:42:40;24.00;50.70
44863;DHT22;30597;49.628;10.850;2022-07-12T00:45:06;24.00;50.70
44863;DHT22;30597;49.628;10.850;2022-07-12T00:47:52;23.90;50.60
44863;DHT22;30597;49.628;10.850;2022-07-12T00:50:20;23.90;50.60
44863;DHT22;30597;49.628;10.850;2022-07-12T00:52:48;23.90;50.70
44863;DHT22;30597;49.628;10.850;2022-07-12T00:55:14;23.90;50.80
44863;DHT22;30597;49.628;10.850;2022-07-12T00:57:41;24.00;50.90
44863;DHT22;30597;49.628;10.850;2022-07-12T01:00:10;23.90;51.00
44863;DHT22;30597;49.628;10.850;2022-07-12T01:02:36;23.90;51.10
44863;DHT22;30597;49.628;10.850;2022-07-12T01:05:04;23.90;51.10
44863;DHT22;30597;49.628;10.850;2022-07-12T01:07:30;23.90;51.20
44863;DHT22;30597;49.628;10.850;2022-07-12T01:09:56;23.90;51.30
44863;DHT22;30597;49.628;10.850;2022-07-12T01:12:22;23.90;51.60
44863;DHT22;30597;49.628;10.850;2022-07-12T01:14:49;23.90;51.70
44863;DHT22;30597;49.628;10.850;2022-07-12T01:17:16;23.90;52.00
44863;DHT22;30597;49.628;10.850;2022-07-12T01:19:43;23.90;52.60
44863;DHT22;30597;49.628;10.850;2022-07-12T01:22:10;23.90;52.70
44863;DHT22;30597;49.628;10.850;2022-07-12T01:24:37;23.90;52.20
44863;DHT22;30597;49.628;10.850;2022-07-12T01:27:07;23.90;52.30
44863;DHT22;30597;49.628;10.850;2022-07-12T01:29:32;23.90;52.50
44863;DHT22;30597;49.628;10.850;2022-07-12T01:32:05;23.90;53.10
44863;DHT22;30597;49.628;10.850;2022-07-12T01:34:54;23.90;53.60
44863;DHT22;30597;49.628;10.850;2022-07-12T01:37:21;23.90;53.60
44863;DHT22;30597;49.628;10.850;2022-07-12T01:39:49;24.00;53.50
44863;DHT22;30597;49.628;10.850;2022-07-12T01:42:15;23.90;53.40
44863;DHT22;30597;49.628;10.850;2022-07-12T01:44:41;23.90;53.30
44863;DHT22;30597;49.628;10.850;2022-07-12T01:47:06;23.90;53.20
44863;DHT22;30597;49.628;10.850;2022-07-12T01:49:32;23.90;53.20
44863;DHT22;30597;49.628;10.850;2022-07-12T01:51:58;23.90;53.10
44863;DHT22;30597;49.628;10.850;2022-07-12T01:54:27;23.90;53.20
44863;DHT22;30597;49.628;10.850;2022-07-12T01:56:53;23.90;53.10
44863;DHT22;30597;49.628;10.850;2022-07-12T01:59:20;23.90;53.30
44863;DHT22;30597;49.628;10.850;2022-07-12T02:01:46;23.80;53.10
44863;DHT22;30597;49.628;10.850;2022-07-12T02:04:12;23.80;53.00
44863;DHT22;30597;49.628;10.850;2022-07-12T02:06:40;23.80;53.00
44863;DHT22;30597;49.628;10.850;2022-07-12T02:09:06;23.80;52.80
44863;DHT22;30597;49.628;10.850;2022-07-12T02:11:32;23.80;52.40
44863;DHT22;30597;49.628;10.850;2022-07-12T02:13:57;23.80;52.20
44863;DHT22;30597;49.628;10.850;2022-07-12T02:16:23;23.80;52.20
44863;DHT22;30597;49.628;10.850;2022-07-12T02:18:48;23.80;52.20
44863;DHT22;30597;49.628;10.850;2022-07-12T02:21:14;23.80;52.20
44863;DHT22;30597;49.628;10.850;2022-07-12T02:23:39;23.80;52.20
44863;DHT22;30597;49.628;10.850;2022-07-12T02:26:05;23.80;52.20
44863;DHT22;30597;49.628;10.850;2022-07-12T02:28:30;23.80;52.20
44863;DHT22;30597;49.628;10.850;2022-07-12T02:30:57;23.80;52.20
44863;DHT22;30597;49.628;10.850;2022-07-12T02:33:23;23.70;52.10
44863;DHT22;30597;49.628;10.850;2022-07-12T02:35:48;23.80;52.20
44863;DHT22;30597;49.628;10.850;2022-07-12T02:38:14;23.70;52.10
44863;DHT22;30597;49.628;10.850;2022-07-12T02:40:39;23.70;52.10
44863;DHT22;30597;49.628;10.850;2022-07-12T02:43:27;23.70;52.30
44863;DHT22;30597;49.628;10.850;2022-07-12T02:45:55;23.70;52.30
44863;DHT22;30597;49.628;10.850;2022-07-12T02:48:23;23.70;52.30
44863;DHT22;30597;49.628;10.850;2022-07-12T02:50:49;23.70;52.20
44863;DHT22;30597;49.628;10.850;2022-07-12T02:53:15;23.70;52.20
44863;DHT22;30597;49.628;10.850;2022-07-12T02:55:41;23.70;52.20
44863;DHT22;30597;49.628;10.850;2022-07-12T02:58:07;23.70;52.20
44863;DHT22;30597;49.628;10.850;2022-07-12T03:00:33;23.70;52.20
44863;DHT22;30597;49.628;10.850;2022-07-12T03:03:00;23.70;52.30
44863;DHT22;30597;49.628;10.850;2022-07-12T03:05:26;23.70;53.00
44863;DHT22;30597;49.628;10.850;2022-07-12T03:07:52;23.70;52.20
44863;DHT22;30597;49.628;10.850;2022-07-12T03:10:17;23.70;52.20
44863;DHT22;30597;49.628;10.850;2022-07-12T03:12:43;23.70;52.20
44863;DHT22;30597;49.628;10.850;2022-07-12T03:15:08;23.70;52.20
44863;DHT22;30597;49.628;10.850;2022-07-12T03:17:35;23.70;52.20
44863;DHT22;30597;49.628;10.850;2022-07-12T03:20:02;23.70;52.20
44863;DHT22;30597;49.628;10.850;2022-07-12T03:22:29;23.70;52.30
44863;DHT22;30597;49.628;10.850;2022-07-12T03:24:55;23.70;52.20
44863;DHT22;30597;49.628;10.850;2022-07-12T03:27:20;23.60;52.80
44863;DHT22;30597;49.628;10.850;2022-07-12T03:29:46;23.60;52.10
44863;DHT22;30597;49.628;10.850;2022-07-12T03:32:11;23.60;52.10
44863;DHT22;30597;49.628;10.850;2022-07-12T03:34:37;23.60;52.10
44863;DHT22;30597;49.628;10.850;2022-07-12T03:37:03;23.60;52.10
44863;DHT22;30597;49.628;10.850;2022-07-12T03:39:29;23.60;52.20
44863;DHT22;30597;49.628;10.850;2022-07-12T03:41:55;23.60;52.20
44863;DHT22;30597;49.628;10.850;2022-07-12T03:44:21;23.60;52.10
44863;DHT22;30597;49.628;10.850;2022-07-12T03:46:46;23.60;52.10
44863;DHT22;30597;49.628;10.850;2022-07-12T03:49:13;23.60;52.20
44863;DHT22;30597;49.628;10.850;2022-07-12T03:51:38;23.60;52.10
44863;DHT22;30597;49.628;10.850;2022-07-12T03:54:05;23.60;52.10
44863;DHT22;30597;49.628;10.850;2022-07-12T03:56:33;23.50;52.10
44863;DHT22;30597;49.628;10.850;2022-07-12T03:59:17;23.50;52.20
44863;DHT22;30597;49.628;10.850;2022-07-12T04:01:43;23.60;52.10
44863;DHT22;30597;49.628;10.850;2022-07-12T04:04:09;23.60;52.30
44863;DHT22;30597;49.628;10.850;2022-07-12T04:06:34;23.60;52.10
44863;DHT22;30597;49.628;10.850;2022-07-12T04:09:00;23.60;52.10
44863;DHT22;30597;49.628;10.850;2022-07-12T04:11:25;23.50;52.10
44863;DHT22;30597;49.628;10.850;2022-07-12T04:13:51;23.50;52.10
44863;DHT22;30597;49.628;10.850;2022-07-12T04:16:17;23.50;52.10
44863;DHT22;30597;49.628;10.850;2022-07-12T04:18:42;23.50;52.10
44863;DHT22;30597;49.628;10.850;2022-07-12T04:21:08;23.50;52.00
44863;DHT22;30597;49.628;10.850;2022-07-12T04:23:33;23.50;52.00
44863;DHT22;30597;49.628;10.850;2022-07-12T04:25:59;23.50;52.00
44863;DHT22;30597;49.628;10.850;2022-07-12T04:28:24;23.50;52.10
44863;DHT22;30597;49.628;10.850;2022-07-12T04:30:50;23.50;52.00
44863;DHT22;30597;49.628;10.850;2022-07-12T04:33:15;23.50;52.10
44863;DHT22;30597;49.628;10.850;2022-07-12T04:35:41;23.50;52.10
44863;DHT22;30597;49.628;10.850;2022-07-12T04:38:07;23.50;52.10
44863;DHT22;30597;49.628;10.850;2022-07-12T04:40:33;23.50;52.20
44863;DHT22;30597;49.628;10.850;2022-07-12T04:42:59;23.50;52.10
44863;DHT22;30597;49.628;10.850;2022-07-12T04:45:24;23.50;52.00
44863;DHT22;30597;49.628;10.850;2022-07-12T04:47:50;23.40;51.70
44863;DHT22;30597;49.628;10.850;2022-07-12T04:50:16;23.40;51.70
44863;DHT22;30597;49.628;10.850;2022-07-12T04:52:41;23.40;51.70
44863;DHT22;30597;49.628;10.850;2022-07-12T04:55:07;23.40;51.70
44863;DHT22;30597;49.628;10.850;2022-07-12T04:57:33;23.40;51.70
44863;DHT22;30597;49.628;10.850;2022-07-12T04:59:58;23.40;51.60
44863;DHT22;30597;49.628;10.850;2022-07-12T05:02:24;23.40;51.70
44863;DHT22;30597;49.628;10.850;2022-07-12T05:04:50;23.30;51.60
44863;DHT22;30597;49.628;10.850;2022-07-12T05:07:15;23.30;51.70
44863;DHT22;30597;49.628;10.850;2022-07-12T05:09:41;23.30;51.70
44863;DHT22;30597;49.628;10.850;2022-07-12T05:12:06;23.30;51.60
44863;DHT22;30597;49.628;10.850;2022-07-12T05:14:32;23.30;51.90
44863;DHT22;30597;49.628;10.850;2022-07-12T05:16:57;23.30;51.80
44863;DHT22;30597;49.628;10.850;2022-07-12T05:19:23;23.30;51.70
44863;DHT22;30597;49.628;10.850;2022-07-12T05:21:49;23.30;51.80
44863;DHT22;30597;49.628;10.850;2022-07-12T05:24:15;23.30;51.80
44863;DHT22;30597;49.628;10.850;2022-07-12T05:26:40;23.30;51.80
44863;DHT22;30597;49.628;10.850;2022-07-12T05:29:06;23.30;51.70
44863;DHT22;30597;49.628;10.850;2022-07-12T05:31:32;23.30;51.70
44863;DHT22;30597;49.628;10.850;2022-07-12T05:33:58;23.30;52.40
44863;DHT22;30597;49.628;10.850;2022-07-12T05:36:23;23.30;52.10
44863;DHT22;30597;49.628;10.850;2022-07-12T05:38:49;23.40;52.30
44863;DHT22;30597;49.628;10.850;2022-07-12T05:41:15;23.40;52.30
44863;DHT22;30597;49.628;10.850;2022-07-12T05:43:41;23.40;52.10
44863;DHT22;30597;49.628;10.850;2022-07-12T05:46:06;23.40;52.10
44863;DHT22;30597;49.628;10.850;2022-07-12T05:48:32;23.40;51.90
44863;DHT22;30597;49.628;10.850;2022-07-12T05:50:57;23.40;51.80
44863;DHT22;30597;49.628;10.850;2022-07-12T05:53:42;23.40;51.80
44863;DHT22;30597;49.628;10.850;2022-07-12T05:56:07;23.30;51.70
44863;DHT22;30597;49.628;10.850;2022-07-12T05:58:33;23.30;51.70
44863;DHT22;30597;49.628;10.850;2022-07-12T06:00:59;23.30;51.70
44863;DHT22;30597;49.628;10.850;2022-07-12T06:03:24;23.30;51.70
44863;DHT22;30597;49.628;10.850;2022-07-12T06:05:50;23.30;51.60
44863;DHT22;30597;49.628;10.850;2022-07-12T06:08:15;23.30;51.60
44863;DHT22;30597;49.628;10.850;2022-07-12T06:10:41;23.30;51.60
44863;DHT22;30597;49.628;10.850;2022-07-12T06:13:06;23.30;51.60
44863;DHT22;30597;49.628;10.850;2022-07-12T06:15:32;23.30;51.50
44863;DHT22;30597;49.628;10.850;2022-07-12T06:17:58;23.30;51.50
44863;DHT22;30597;49.628;10.850;2022-07-12T06:20:24;23.30;51.90
44863;DHT22;30597;49.628;10.850;2022-07-12T06:22:50;23.30;51.80
44863;DHT22;30597;49.628;10.850;2022-07-12T06:25:15;23.30;51.80
44863;DHT22;30597;49.628;10.850;2022-07-12T06:27:41;23.30;52.00
44863;DHT22;30597;49.628;10.850;2022-07-12T06:30:07;23.40;52.00
44863;DHT22;30597;49.628;10.850;2022-07-12T06:32:32;23.40;52.00
44863;DHT22;30597;49.628;10.850;2022-07-12T06:34:58;23.40;51.90
44863;DHT22;30597;49.628;10.850;2022-07-12T06:37:24;23.40;51.80
44863;DHT22;30597;49.628;10.850;2022-07-12T06:39:49;23.40;51.90
44863;DHT22;30597;49.628;10.850;2022-07-12T06:42:16;23.40;51.80
44863;DHT22;30597;49.628;10.850;2022-07-12T06:44:42;23.40;51.90
44863;DHT22;30597;49.628;10.850;2022-07-12T06:47:07;23.40;51.80
44863;DHT22;30597;49.628;10.850;2022-07-12T06:49:33;23.40;51.90
44863;DHT22;30597;49.628;10.850;2022-07-12T06:51:58;23.40;51.80
44863;DHT22;30597;49.628;10.850;2022-07-12T06:54:24;23.40;51.80
44863;DHT22;30597;49.628;10.850;2022-07-12T06:56:50;23.40;52.00
44863;DHT22;30597;49.628;10.850;2022-07-12T06:59:16;23.40;51.80
44863;DHT22;30597;49.628;10.850;2022-07-12T07:01:42;23.50;51.90
44863;DHT22;30597;49.628;10.850;2022-07-12T07:04:08;23.50;52.10
44863;DHT22;30597;49.628;10.850;2022-07-12T07:06:34;23.50;52.10
44863;DHT22;30597;49.628;10.850;2022-07-12T07:08:59;23.60;51.30
44863;DHT22;30597;49.628;10.850;2022-07-12T07:11:25;23.60;50.10
44863;DHT22;30597;49.628;10.850;2022-07-12T07:13:51;23.70;49.90
44863;DHT22;30597;49.628;10.850;2022-07-12T07:16:17;23.70;49.70
44863;DHT22;30597;49.628;10.850;2022-07-12T07:18:43;23.70;49.50
44863;DHT22;30597;49.628;10.850;2022-07-12T07:21:09;23.70;49.30
44863;DHT22;30597;49.628;10.850;2022-07-12T07:23:34;23.70;49.00
44863;DHT22;30597;49.628;10.850;2022-07-12T07:26:00;23.70;48.80
44863;DHT22;30597;49.628;10.850;2022-07-12T07:28:25;23.60;49.00
44863;DHT22;30597;49.628;10.850;2022-07-12T07:30:51;23.60;49.40
44863;DHT22;30597;49.628;10.850;2022-07-12T07:33:21;23.60;49.60
44863;DHT22;30597;49.628;10.850;2022-07-12T07:35:47;23.60;49.70
44863;DHT22;30597;49.628;10.850;2022-07-12T07:38:13;23.70;49.80
44863;DHT22;30597;49.628;10.850;2022-07-12T07:40:39;23.70;49.80
44863;DHT22;30597;49.628;10.850;2022-07-12T07:43:04;23.70;50.00
44863;DHT22;30597;49.628;10.850;2022-07-12T07:45:30;23.70;50.00
44863;DHT22;30597;49.628;10.850;2022-07-12T07:47:55;23.70;49.90
44863;DHT22;30597;49.628;10.850;2022-07-12T07:50:21;23.70;50.00
44863;DHT22;30597;49.628;10.850;2022-07-12T07:52:46;23.80;50.00
44863;DHT22;30597;49.628;10.850;2022-07-12T07:55:15;23.80;50.00
44863;DHT22;30597;49.628;10.850;2022-07-12T07:57:41;23.90;50.00
44863;DHT22;30597;49.628;10.850;2022-07-12T08:00:07;23.90;49.60
44863;DHT22;30597;49.628;10.850;2022-07-12T08:02:32;23.90;49.60
44863;DHT22;30597;49.628;10.850;2022-07-12T08:04:58;23.90;49.60
44863;DHT22;30597;49.628;10.850;2022-07-12T08:07:23;23.90;49.60
44863;DHT22;30597;49.628;10.850;2022-07-12T08:09:49;23.90;50.40
44863;DHT22;30597;49.628;10.850;2022-07-12T08:12:14;23.90;49.80
44863;DHT22;30597;49.628;10.850;2022-07-12T08:14:40;24.00;49.80
44863;DHT22;30597;49.628;10.850;2022-07-12T08:17:06;24.00;49.80
44863;DHT22;30597;49.628;10.850;2022-07-12T08:19:31;23.90;49.70
44863;DHT22;30597;49.628;10.850;2022-07-12T08:21:57;24.00;49.70
44863;DHT22;30597;49.628;10.850;2022-07-12T08:24:22;24.00;49.70
44863;DHT22;30597;49.628;10.850;2022-07-12T08:26:48;24.10;49.70
44863;DHT22;30597;49.628;10.850;2022-07-12T08:29:14;24.10;49.70
44863;DHT22;30597;49.628;10.850;2022-07-12T08:31:40;24.10;49.70
44863;DHT22;30597;49.628;10.850;2022-07-12T08:34:05;24.00;49.70
44863;DHT22;30597;49.628;10.850;2022-07-12T08:36:31;24.00;49.90
44863;DHT22;30597;49.628;10.850;2022-07-12T08:38:57;24.10;49.90
44863;DHT22;30597;49.628;10.850;2022-07-12T08:41:22;24.10;49.90
44863;DHT22;30597;49.628;10.850;2022-07-12T08:43:48;24.10;49.70
44863;DHT22;30597;49.628;10.850;2022-07-12T08:46:14;24.10;49.90
44863;DHT22;30597;49.628;10.850;2022-07-12T08:48:42;24.10;49.80
44863;DHT22;30597;49.628;10.850;2022-07-12T08:51:10;24.20;50.00
44863;DHT22;30597;49.628;10.850;2022-07-12T08:53:36;24.20;49.80
44863;DHT22;30597;49.628;10.850;2022-07-12T08:56:03;24.20;49.80
44863;DHT22;30597;49.628;10.850;2022-07-12T08:58:28;24.20;49.80
44863;DHT22;30597;49.628;10.850;2022-07-12T09:00:54;24.30;49.90
44863;DHT22;30597;49.628;10.850;2022-07-12T09:03:20;24.30;49.90
44863;DHT22;30597;49.628;10.850;2022-07-12T09:05:51;24.30;50.00
44863;DHT22;30597;49.628;10.850;2022-07-12T09:08:18;24.30;49.90
44863;DHT22;30597;49.628;10.850;2022-07-12T09:10:56;24.30;50.70
44863;DHT22;30597;49.628;10.850;2022-07-12T09:13:53;24.30;49.90
44863;DHT22;30597;49.628;10.850;2022-07-12T09:16:20;24.30;50.00
44863;DHT22;30597;49.628;10.850;2022-07-12T09:18:47;24.30;50.00
44863;DHT22;30597;49.628;10.850;2022-07-12T09:21:26;24.30;50.00
44863;DHT22;30597;49.628;10.850;2022-07-12T09:23:54;24.30;49.80
44863;DHT22;30597;49.628;10.850;2022-07-12T09:26:20;24.30;49.80
44863;DHT22;30597;49.628;10.850;2022-07-12T09:28:49;24.40;49.80
44863;DHT22;30597;49.628;10.850;2022-07-12T09:31:15;24.30;49.20
44863;DHT22;30597;49.628;10.850;2022-07-12T09:33:41;24.30;49.50
44863;DHT22;30597;49.628;10.850;2022-07-12T09:36:25;24.40;49.50
44863;DHT22;30597;49.628;10.850;2022-07-12T09:38:52;24.30;49.10
44863;DHT22;30597;49.628;10.850;2022-07-12T09:41:20;24.40;49.40
44863;DHT22;30597;49.628;10.850;2022-07-12T09:43:47;24.40;49.50
44863;DHT22;30597;49.628;10.850;2022-07-12T09:46:14;24.40;49.10
44863;DHT22;30597;49.628;10.850;2022-07-12T09:48:40;24.30;48.80
44863;DHT22;30597;49.628;10.850;2022-07-12T09:51:09;24.30;49.10
44863;DHT22;30597;49.628;10.850;2022-07-12T09:53:41;24.40;49.00
44863;DHT22;30597;49.628;10.850;2022-07-12T09:56:10;24.40;49.40
44863;DHT22;30597;49.628;10.850;2022-07-12T09:58:40;24.40;49.20
44863;DHT22;30597;49.628;10.850;2022-07-12T10:01:10;24.40;49.30
44863;DHT22;30597;49.628;10.850;2022-07-12T10:03:39;24.40;49.30
44863;DHT22;30597;49.628;10.850;2022-07-12T10:06:06;24.40;49.20
44863;DHT22;30597;49.628;10.850;2022-07-12T10:08:33;24.30;49.00
44863;DHT22;30597;49.628;10.850;2022-07-12T10:11:00;24.30;49.10
44863;DHT22;30597;49.628;10.850;2022-07-12T10:13:26;24.30;49.00
44863;DHT22;30597;49.628;10.850;2022-07-12T10:15:58;24.30;48.70
44863;DHT22;30597;49.628;10.850;2022-07-12T10:18:23;24.30;49.00
44863;DHT22;30597;49.628;10.850;2022-07-12T10:20:49;24.30;48.90
44863;DHT22;30597;49.628;10.850;2022-07-12T10:23:30;24.30;48.80
44863;DHT22;30597;49.628;10.850;2022-07-12T10:25:57;24.20;48.70
44863;DHT22;30597;49.628;10.850;2022-07-12T10:28:23;24.30;48.80
44863;DHT22;30597;49.628;10.850;2022-07-12T10:31:08;24.30;48.80
44863;DHT22;30597;49.628;10.850;2022-07-12T10:33:34;24.30;49.60
44863;DHT22;30597;49.628;10.850;2022-07-12T10:36:05;24.30;48.90
44863;DHT22;30597;49.628;10.850;2022-07-12T10:38:32;24.20;48.90
44863;DHT22;30597;49.628;10.850;2022-07-12T10:41:19;24.20;48.90
44863;DHT22;30597;49.628;10.850;2022-07-12T10:43:44;24.30;48.90
44863;DHT22;30597;49.628;10.850;2022-07-12T10:46:29;24.30;49.00
44863;DHT22;30597;49.628;10.850;2022-07-12T10:49:22;24.30;48.80
44863;DHT22;30597;49.628;10.850;2022-07-12T10:52:13;24.30;49.10
44863;DHT22;30597;49.628;10.850;2022-07-12T11:00:12;24.30;49.10
44863;DHT22;30597;49.628;10.850;2022-07-12T11:02:38;24.30;49.20
44863;DHT22;30597;49.628;10.850;2022-07-12T11:05:04;24.30;49.20
44863;DHT22;30597;49.628;10.850;2022-07-12T11:07:30;24.30;49.10
44863;DHT22;30597;49.628;10.850;2022-07-12T11:09:56;24.30;49.20
44863;DHT22;30597;49.628;10.850;2022-07-12T11:12:31;24.40;49.20
44863;DHT22;30597;49.628;10.850;2022-07-12T11:15:00;24.40;49.40
44863;DHT22;30597;49.628;10.850;2022-07-12T11:17:30;24.50;49.20
44863;DHT22;30597;49.628;10.850;2022-07-12T11:20:10;24.50;49.20
44863;DHT22;30597;49.628;10.850;2022-07-12T11:22:37;24.50;49.30
44863;DHT22;30597;49.628;10.850;2022-07-12T11:25:05;24.40;49.10
44863;DHT22;30597;49.628;10.850;2022-07-12T11:27:31;24.50;49.20
44863;DHT22;30597;49.628;10.850;2022-07-12T11:30:00;24.50;49.10
44863;DHT22;30597;49.628;10.850;2022-07-12T11:32:40;24.40;49.00
44863;DHT22;30597;49.628;10.850;2022-07-12T11:35:24;24.40;49.00
44863;DHT22;30597;49.628;10.850;2022-07-12T11:37:55;24.40;49.00
44863;DHT22;30597;49.628;10.850;2022-07-12T11:40:28;24.30;48.80
44863;DHT22;30597;49.628;10.850;2022-07-12T11:42:55;24.30;48.80
44863;DHT22;30597;49.628;10.850;2022-07-12T11:45:21;24.30;48.80
44863;DHT22;30597;49.628;10.850;2022-07-12T11:47:47;24.30;48.80
44863;DHT22;30597;49.628;10.850;2022-07-12T11:50:17;24.30;48.70
44863;DHT22;30597;49.628;10.850;2022-07-12T11:52:43;24.30;48.80
44863;DHT22;30597;49.628;10.850;2022-07-12T11:55:08;24.20;48.70
44863;DHT22;30597;49.628;10.850;2022-07-12T11:57:34;24.20;48.70
44863;DHT22;30597;49.628;10.850;2022-07-12T12:00:20;24.20;48.70
44863;DHT22;30597;49.628;10.850;2022-07-12T12:02:50;24.20;48.80
44863;DHT22;30597;49.628;10.850;2022-07-12T12:05:16;24.20;48.80
44863;DHT22;30597;49.628;10.850;2022-07-12T12:07:42;24.20;48.70
44863;DHT22;30597;49.628;10.850;2022-07-12T12:10:11;24.10;48.60
44863;DHT22;30597;49.628;10.850;2022-07-12T12:12:47;24.10;48.70
44863;DHT22;30597;49.628;10.850;2022-07-12T12:15:16;24.10;48.70
44863;DHT22;30597;49.628;10.850;2022-07-12T12:17:56;24.10;48.70
44863;DHT22;30597;49.628;10.850;2022-07-12T12:20:23;24.10;48.60
44863;DHT22;30597;49.628;10.850;2022-07-12T12:22:56;24.10;48.60
44863;DHT22;30597;49.628;10.850;2022-07-12T12:25:23;24.10;48.60
44863;DHT22;30597;49.628;10.850;2022-07-12T12:27:54;24.10;48.60
44863;DHT22;30597;49.628;10.850;2022-07-12T12:30:20;24.00;48.40
44863;DHT22;30597;49.628;10.850;2022-07-12T12:32:48;24.00;48.40
44863;DHT22;30597;49.628;10.850;2022-07-12T12:35:15;24.00;48.40
44863;DHT22;30597;49.628;10.850;2022-07-12T12:37:55;24.00;48.40
44863;DHT22;30597;49.628;10.850;2022-07-12T12:40:23;24.00;48.40
44863;DHT22;30597;49.628;10.850;2022-07-12T12:42:49;24.00;48.40
44863;DHT22;30597;49.628;10.850;2022-07-12T12:45:24;24.00;48.30
44863;DHT22;30597;49.628;10.850;2022-07-12T12:47:58;24.00;48.30
44863;DHT22;30597;49.628;10.850;2022-07-12T12:50:39;24.00;48.30
44863;DHT22;30597;49.628;10.850;2022-07-12T12:53:12;24.00;48.30
44863;DHT22;30597;49.628;10.850;2022-07-12T12:55:39;24.00;48.30
44863;DHT22;30597;49.628;10.850;2022-07-12T12:58:05;24.00;48.30
44863;DHT22;30597;49.628;10.850;2022-07-12T13:00:31;23.90;48.20
44863;DHT22;30597;49.628;10.850;2022-07-12T13:02:57;23.90;48.10
44863;DHT22;30597;49.628;10.850;2022-07-12T13:05:28;23.90;48.20
44863;DHT22;30597;49.628;10.850;2022-07-12T13:07:54;23.90;48.20
44863;DHT22;30597;49.628;10.850;2022-07-12T13:10:21;23.90;47.90
44863;DHT22;30597;49.628;10.850;2022-07-12T13:12:46;23.90;48.10
44863;DHT22;30597;49.628;10.850;2022-07-12T13:15:12;23.90;48.10
44863;DHT22;30597;49.628;10.850;2022-07-12T13:17:37;23.90;48.00
44863;DHT22;30597;49.628;10.850;2022-07-12T13:20:04;24.00;48.10
44863;DHT22;30597;49.628;10.850;2022-07-12T13:22:31;23.90;48.10
44863;DHT22;30597;49.628;10.850;2022-07-12T13:24:56;23.90;48.00
44863;DHT22;30597;49.628;10.850;2022-07-12T13:27:22;23.90;48.00
44863;DHT22;30597;49.628;10.850;2022-07-12T13:29:47;23.90;48.00
44863;DHT22;30597;49.628;10.850;2022-07-12T13:32:13;23.90;48.00
44863;DHT22;30597;49.628;10.850;2022-07-12T13:34:38;23.90;48.00
44863;DHT22;30597;49.628;10.850;2022-07-12T13:37:04;23.90;47.90
44863;DHT22;30597;49.628;10.850;2022-07-12T13:39:30;23.90;47.90
44863;DHT22;30597;49.628;10.850;2022-07-12T13:42:14;23.90;47.90
44863;DHT22;30597;49.628;10.850;2022-07-12T13:44:41;23.90;47.90
44863;DHT22;30597;49.628;10.850;2022-07-12T13:47:07;23.90;47.90
44863;DHT22;30597;49.628;10.850;2022-07-12T13:49:32;23.90;47.90
44863;DHT22;30597;49.628;10.850;2022-07-12T13:51:58;23.90;47.90
44863;DHT22;30597;49.628;10.850;2022-07-12T13:54:24;23.90;47.80
44863;DHT22;30597;49.628;10.850;2022-07-12T13:56:49;23.90;47.80
44863;DHT22;30597;49.628;10.850;2022-07-12T13:59:15;23.90;47.70
44863;DHT22;30597;49.628;10.850;2022-07-12T14:01:40;23.90;47.80
44863;DHT22;30597;49.628;10.850;2022-07-12T14:04:06;23.80;47.60
44863;DHT22;30597;49.628;10.850;2022-07-12T14:06:31;23.90;47.70
44863;DHT22;30597;49.628;10.850;2022-07-12T14:08:57;23.90;47.70
44863;DHT22;30597;49.628;10.850;2022-07-12T14:11:22;23.90;47.60
44863;DHT22;30597;49.628;10.850;2022-07-12T14:13:48;23.90;47.70
44863;DHT22;30597;49.628;10.850;2022-07-12T14:16:13;23.90;47.60
44863;DHT22;30597;49.628;10.850;2022-07-12T14:18:39;23.90;47.60
44863;DHT22;30597;49.628;10.850;2022-07-12T14:21:06;23.90;47.60
44863;DHT22;30597;49.628;10.850;2022-07-12T14:23:32;23.90;47.60
44863;DHT22;30597;49.628;10.850;2022-07-12T14:25:58;23.90;47.60
44863;DHT22;30597;49.628;10.850;2022-07-12T14:28:23;23.90;47.60
44863;DHT22;30597;49.628;10.850;2022-07-12T14:30:49;23.90;47.50
44863;DHT22;30597;49.628;10.850;2022-07-12T14:33:14;23.90;47.80
44863;DHT22;30597;49.628;10.850;2022-07-12T14:35:40;23.90;47.80
44863;DHT22;30597;49.628;10.850;2022-07-12T14:38:05;24.00;47.80
44863;DHT22;30597;49.628;10.850;2022-07-12T14:40:31;23.90;47.70
44863;DHT22;30597;49.628;10.850;2022-07-12T14:42:56;23.90;47.70
44863;DHT22;30597;49.628;10.850;2022-07-12T14:45:23;23.90;47.60
44863;DHT22;30597;49.628;10.850;2022-07-12T14:47:49;23.90;47.60
44863;DHT22;30597;49.628;10.850;2022-07-12T14:50:14;23.90;47.50
44863;DHT22;30597;49.628;10.850;2022-07-12T14:52:40;23.90;47.50
44863;DHT22;30597;49.628;10.850;2022-07-12T14:55:06;23.90;47.50
44863;DHT22;30597;49.628;10.850;2022-07-12T14:57:32;23.90;47.50
44863;DHT22;30597;49.628;10.850;2022-07-12T14:59:57;23.90;47.50
44863;DHT22;30597;49.628;10.850;2022-07-12T15:02:23;23.90;47.50
44863;DHT22;30597;49.628;10.850;2022-07-12T15:04:49;23.90;47.40
44863;DHT22;30597;49.628;10.850;2022-07-12T15:07:15;23.90;47.40
44863;DHT22;30597;49.628;10.850;2022-07-12T15:09:41;23.90;47.40
44863;DHT22;30597;49.628;10.850;2022-07-12T15:12:06;23.90;47.30
44863;DHT22;30597;49.628;10.850;2022-07-12T15:14:32;23.90;47.40
44863;DHT22;30597;49.628;10.850;2022-07-12T15:16:58;23.90;47.30
44863;DHT22;30597;49.628;10.850;2022-07-12T15:19:23;23.90;47.40
44863;DHT22;30597;49.628;10.850;2022-07-12T15:21:49;23.90;47.30